東京理科大学Ⅰ部体育局航空部

このエントリーをはてなブックマークに追加

ようこそ、理科大航空部HPへ! ここでは、航空部に関する情報や、活動などをお知らせしています。


METAR・TAF

TOKYO INTERNATIONAL
Metar
RJTT 140830Z 34019KT 9999 FEW030 BKN060 18/05 Q1009 TEMPO 36022G32KT

08:30 UTC

Wind: 340° 19kt

Visibility: 9999 m

Sky: FEW 3000 ft

Temp: 18 deg C / 64.4 deg F

Dewpoint: 5 deg C / 41 deg F

Pressure: 1009 hPa

TAF
TAF RJTT 140507Z 1406/1512 36010KT 9999 FEW030 SCT050 BECMG 1406/1408 36020KT TEMPO 1407/1412 36024G34KT BECMG 1415/1417 02010KT BECMG 1500/1503 08006KT BECMG 1506/1509 19010KT
NARITA INTERNATIONAL
Metar
RJAA 140830Z 06007KT 010V090 9999 FEW030 BKN050 18/12 Q1009 BECMG 04010KT

08:30 UTC

Wind: 60° 7kt

Visibility: 9999 m

Sky: FEW 3000 ft

Temp: 18 deg C / 64.4 deg F

Dewpoint: 12 deg C / 53.6 deg F

Pressure: 1009 hPa

TAF
TAF AMD RJAA 140806Z 1408/1512 04010KT 9999 FEW030 BKN045 BECMG 1500/1503 15006KT